sensor_id;sensor_type;location;lat;lon;timestamp;temperature;humidity
39347;DHT22;26262;49.836;6.632;2023-05-07T00:00:37;12.40;99.90
39347;DHT22;26262;49.836;6.632;2023-05-07T00:03:03;12.40;99.90
39347;DHT22;26262;49.836;6.632;2023-05-07T00:05:28;12.30;99.90
39347;DHT22;26262;49.836;6.632;2023-05-07T00:07:54;12.40;99.90
39347;DHT22;26262;49.836;6.632;2023-05-07T00:10:19;12.50;99.90
39347;DHT22;26262;49.836;6.632;2023-05-07T00:12:45;12.40;99.90
39347;DHT22;26262;49.836;6.632;2023-05-07T00:15:10;12.20;99.90
39347;DHT22;26262;49.836;6.632;2023-05-07T00:17:37;12.30;99.90
39347;DHT22;26262;49.836;6.632;2023-05-07T00:20:04;12.20;99.90
39347;DHT22;26262;49.836;6.632;2023-05-07T00:22:30;12.30;99.90
39347;DHT22;26262;49.836;6.632;2023-05-07T00:24:56;12.40;99.90
39347;DHT22;26262;49.836;6.632;2023-05-07T00:27:22;12.10;99.90
39347;DHT22;26262;49.836;6.632;2023-05-07T00:29:48;12.10;99.90
39347;DHT22;26262;49.836;6.632;2023-05-07T00:32:13;12.10;99.90
39347;DHT22;26262;49.836;6.632;2023-05-07T00:34:39;12.10;99.90
39347;DHT22;26262;49.836;6.632;2023-05-07T00:37:05;12.20;99.90
39347;DHT22;26262;49.836;6.632;2023-05-07T00:39:33;11.90;99.90
39347;DHT22;26262;49.836;6.632;2023-05-07T00:41:59;11.80;99.90
39347;DHT22;26262;49.836;6.632;2023-05-07T00:44:26;11.90;99.90
39347;DHT22;26262;49.836;6.632;2023-05-07T00:46:52;11.90;99.90
39347;DHT22;26262;49.836;6.632;2023-05-07T00:49:18;11.90;99.90
39347;DHT22;26262;49.836;6.632;2023-05-07T00:51:44;11.90;99.90
39347;DHT22;26262;49.836;6.632;2023-05-07T00:54:10;11.90;99.90
39347;DHT22;26262;49.836;6.632;2023-05-07T00:56:37;11.80;99.90
39347;DHT22;26262;49.836;6.632;2023-05-07T00:59:04;11.80;99.90
39347;DHT22;26262;49.836;6.632;2023-05-07T01:01:31;11.80;99.90
39347;DHT22;26262;49.836;6.632;2023-05-07T01:03:57;11.80;99.90
39347;DHT22;26262;49.836;6.632;2023-05-07T01:06:23;11.90;99.90
39347;DHT22;26262;49.836;6.632;2023-05-07T01:08:51;11.70;99.90
39347;DHT22;26262;49.836;6.632;2023-05-07T01:11:18;11.70;99.90
39347;DHT22;26262;49.836;6.632;2023-05-07T01:13:46;11.70;99.90
39347;DHT22;26262;49.836;6.632;2023-05-07T01:16:12;11.40;99.90
39347;DHT22;26262;49.836;6.632;2023-05-07T01:18:38;11.20;99.90
39347;DHT22;26262;49.836;6.632;2023-05-07T01:21:04;11.40;99.90
39347;DHT22;26262;49.836;6.632;2023-05-07T01:23:30;11.40;99.90
39347;DHT22;26262;49.836;6.632;2023-05-07T01:25:56;11.40;99.90
39347;DHT22;26262;49.836;6.632;2023-05-07T01:28:22;11.40;99.90
39347;DHT22;26262;49.836;6.632;2023-05-07T01:30:52;11.20;99.90
39347;DHT22;26262;49.836;6.632;2023-05-07T01:33:20;10.90;99.90
39347;DHT22;26262;49.836;6.632;2023-05-07T01:35:52;11.00;99.90
39347;DHT22;26262;49.836;6.632;2023-05-07T01:38:18;11.10;99.90
39347;DHT22;26262;49.836;6.632;2023-05-07T01:40:45;11.20;99.90
39347;DHT22;26262;49.836;6.632;2023-05-07T01:43:10;11.10;99.90
39347;DHT22;26262;49.836;6.632;2023-05-07T01:45:36;11.20;99.90
39347;DHT22;26262;49.836;6.632;2023-05-07T01:48:02;11.10;99.90
39347;DHT22;26262;49.836;6.632;2023-05-07T01:50:29;11.00;99.90
39347;DHT22;26262;49.836;6.632;2023-05-07T01:52:56;10.90;99.90
39347;DHT22;26262;49.836;6.632;2023-05-07T01:55:21;10.80;99.90
39347;DHT22;26262;49.836;6.632;2023-05-07T01:57:47;10.90;99.90
39347;DHT22;26262;49.836;6.632;2023-05-07T02:00:13;10.80;99.90
39347;DHT22;26262;49.836;6.632;2023-05-07T02:02:38;10.90;99.90
39347;DHT22;26262;49.836;6.632;2023-05-07T02:05:04;10.90;99.90
39347;DHT22;26262;49.836;6.632;2023-05-07T02:07:30;11.00;99.90
39347;DHT22;26262;49.836;6.632;2023-05-07T02:09:56;10.60;99.90
39347;DHT22;26262;49.836;6.632;2023-05-07T02:12:22;10.30;99.90
39347;DHT22;26262;49.836;6.632;2023-05-07T02:14:48;10.40;99.90
39347;DHT22;26262;49.836;6.632;2023-05-07T02:17:13;10.40;99.90
39347;DHT22;26262;49.836;6.632;2023-05-07T02:19:39;10.60;99.90
39347;DHT22;26262;49.836;6.632;2023-05-07T02:22:04;10.70;99.90
39347;DHT22;26262;49.836;6.632;2023-05-07T02:24:30;10.70;99.90
39347;DHT22;26262;49.836;6.632;2023-05-07T02:26:55;10.60;99.90
39347;DHT22;26262;49.836;6.632;2023-05-07T02:29:21;10.70;99.90
39347;DHT22;26262;49.836;6.632;2023-05-07T02:31:46;10.70;99.90
39347;DHT22;26262;49.836;6.632;2023-05-07T02:34:16;10.60;99.90
39347;DHT22;26262;49.836;6.632;2023-05-07T02:36:42;10.50;99.90
39347;DHT22;26262;49.836;6.632;2023-05-07T02:39:07;10.50;99.90
39347;DHT22;26262;49.836;6.632;2023-05-07T02:41:33;10.50;99.90
39347;DHT22;26262;49.836;6.632;2023-05-07T02:43:58;10.70;99.90
39347;DHT22;26262;49.836;6.632;2023-05-07T02:46:24;10.70;99.90
39347;DHT22;26262;49.836;6.632;2023-05-07T02:48:49;10.70;99.90
39347;DHT22;26262;49.836;6.632;2023-05-07T02:51:19;10.40;99.90
39347;DHT22;26262;49.836;6.632;2023-05-07T02:53:45;10.10;99.90
39347;DHT22;26262;49.836;6.632;2023-05-07T02:56:11;10.20;99.90
39347;DHT22;26262;49.836;6.632;2023-05-07T02:58:37;10.10;99.90
39347;DHT22;26262;49.836;6.632;2023-05-07T03:01:05;10.20;99.90
39347;DHT22;26262;49.836;6.632;2023-05-07T03:03:30;10.30;99.90
39347;DHT22;26262;49.836;6.632;2023-05-07T03:05:56;10.30;99.90
39347;DHT22;26262;49.836;6.632;2023-05-07T03:08:22;10.30;99.90
39347;DHT22;26262;49.836;6.632;2023-05-07T03:10:48;10.30;99.90
39347;DHT22;26262;49.836;6.632;2023-05-07T03:13:13;10.20;99.90
39347;DHT22;26262;49.836;6.632;2023-05-07T03:15:39;10.20;99.90
39347;DHT22;26262;49.836;6.632;2023-05-07T03:18:05;10.20;99.90
39347;DHT22;26262;49.836;6.632;2023-05-07T03:20:30;10.30;99.90
39347;DHT22;26262;49.836;6.632;2023-05-07T03:22:56;10.00;99.90
39347;DHT22;26262;49.836;6.632;2023-05-07T03:25:22;10.10;99.90
39347;DHT22;26262;49.836;6.632;2023-05-07T03:27:47;10.20;99.90
39347;DHT22;26262;49.836;6.632;2023-05-07T03:30:13;10.20;99.90
39347;DHT22;26262;49.836;6.632;2023-05-07T03:32:38;9.80;99.90
39347;DHT22;26262;49.836;6.632;2023-05-07T03:35:04;9.80;99.90
39347;DHT22;26262;49.836;6.632;2023-05-07T03:37:30;9.70;99.90
39347;DHT22;26262;49.836;6.632;2023-05-07T03:39:56;9.70;99.90
39347;DHT22;26262;49.836;6.632;2023-05-07T03:42:21;9.70;99.90
39347;DHT22;26262;49.836;6.632;2023-05-07T03:44:47;9.80;99.90
39347;DHT22;26262;49.836;6.632;2023-05-07T03:47:12;9.90;99.90
39347;DHT22;26262;49.836;6.632;2023-05-07T03:49:39;10.00;99.90
39347;DHT22;26262;49.836;6.632;2023-05-07T03:52:05;9.90;99.90
39347;DHT22;26262;49.836;6.632;2023-05-07T03:54:31;9.90;99.90
39347;DHT22;26262;49.836;6.632;2023-05-07T03:56:56;9.90;99.90
39347;DHT22;26262;49.836;6.632;2023-05-07T03:59:22;9.90;99.90
39347;DHT22;26262;49.836;6.632;2023-05-07T04:01:48;9.80;99.90
39347;DHT22;26262;49.836;6.632;2023-05-07T04:04:14;9.80;99.90
39347;DHT22;26262;49.836;6.632;2023-05-07T04:06:40;9.80;99.90
39347;DHT22;26262;49.836;6.632;2023-05-07T04:09:06;9.80;99.90
39347;DHT22;26262;49.836;6.632;2023-05-07T04:11:32;9.70;99.90
39347;DHT22;26262;49.836;6.632;2023-05-07T04:13:57;9.80;99.90
39347;DHT22;26262;49.836;6.632;2023-05-07T04:16:23;9.80;99.90
39347;DHT22;26262;49.836;6.632;2023-05-07T04:18:48;9.90;99.90
39347;DHT22;26262;49.836;6.632;2023-05-07T04:21:18;9.90;99.90
39347;DHT22;26262;49.836;6.632;2023-05-07T04:23:45;10.00;99.90
39347;DHT22;26262;49.836;6.632;2023-05-07T04:26:10;10.10;99.90
39347;DHT22;26262;49.836;6.632;2023-05-07T04:28:36;9.80;99.90
39347;DHT22;26262;49.836;6.632;2023-05-07T04:31:02;9.90;99.90
39347;DHT22;26262;49.836;6.632;2023-05-07T04:33:28;9.80;99.90
39347;DHT22;26262;49.836;6.632;2023-05-07T04:35:53;9.80;99.90
39347;DHT22;26262;49.836;6.632;2023-05-07T04:38:19;9.90;99.90
39347;DHT22;26262;49.836;6.632;2023-05-07T04:40:45;10.10;99.90
39347;DHT22;26262;49.836;6.632;2023-05-07T04:43:12;10.10;99.90
39347;DHT22;26262;49.836;6.632;2023-05-07T04:45:38;10.20;99.90
39347;DHT22;26262;49.836;6.632;2023-05-07T04:48:06;10.20;99.90
39347;DHT22;26262;49.836;6.632;2023-05-07T04:50:32;10.20;99.90
39347;DHT22;26262;49.836;6.632;2023-05-07T04:52:58;10.10;99.90
39347;DHT22;26262;49.836;6.632;2023-05-07T04:55:23;10.20;99.90
39347;DHT22;26262;49.836;6.632;2023-05-07T04:57:49;10.30;99.90
39347;DHT22;26262;49.836;6.632;2023-05-07T05:00:15;10.30;99.90
39347;DHT22;26262;49.836;6.632;2023-05-07T05:02:41;10.40;99.90
39347;DHT22;26262;49.836;6.632;2023-05-07T05:05:07;10.50;99.90
39347;DHT22;26262;49.836;6.632;2023-05-07T05:07:33;10.50;99.90
39347;DHT22;26262;49.836;6.632;2023-05-07T05:09:59;10.40;99.90
39347;DHT22;26262;49.836;6.632;2023-05-07T05:12:24;10.30;99.90
39347;DHT22;26262;49.836;6.632;2023-05-07T05:14:50;10.20;99.90
39347;DHT22;26262;49.836;6.632;2023-05-07T05:17:16;10.30;99.90
39347;DHT22;26262;49.836;6.632;2023-05-07T05:19:41;10.40;99.90
39347;DHT22;26262;49.836;6.632;2023-05-07T05:22:07;10.20;99.90
39347;DHT22;26262;49.836;6.632;2023-05-07T05:24:32;10.10;99.90
39347;DHT22;26262;49.836;6.632;2023-05-07T05:26:58;10.20;99.90
39347;DHT22;26262;49.836;6.632;2023-05-07T05:29:26;10.30;99.90
39347;DHT22;26262;49.836;6.632;2023-05-07T05:31:52;10.50;99.90
39347;DHT22;26262;49.836;6.632;2023-05-07T05:34:17;10.70;99.90
39347;DHT22;26262;49.836;6.632;2023-05-07T05:36:45;10.70;99.90
39347;DHT22;26262;49.836;6.632;2023-05-07T05:39:10;10.60;99.90
39347;DHT22;26262;49.836;6.632;2023-05-07T05:41:36;10.70;99.90
39347;DHT22;26262;49.836;6.632;2023-05-07T05:44:01;10.70;99.90
39347;DHT22;26262;49.836;6.632;2023-05-07T05:46:27;10.90;99.90
39347;DHT22;26262;49.836;6.632;2023-05-07T05:48:52;10.70;99.90
39347;DHT22;26262;49.836;6.632;2023-05-07T05:51:18;10.80;99.90
39347;DHT22;26262;49.836;6.632;2023-05-07T05:53:43;10.90;99.90
39347;DHT22;26262;49.836;6.632;2023-05-07T05:56:09;11.10;99.90
39347;DHT22;26262;49.836;6.632;2023-05-07T05:58:35;11.00;99.90
39347;DHT22;26262;49.836;6.632;2023-05-07T06:01:01;11.10;99.90
39347;DHT22;26262;49.836;6.632;2023-05-07T06:03:28;11.30;99.90
39347;DHT22;26262;49.836;6.632;2023-05-07T06:05:53;11.50;99.90
39347;DHT22;26262;49.836;6.632;2023-05-07T06:08:19;11.60;99.90
39347;DHT22;26262;49.836;6.632;2023-05-07T06:10:45;11.50;99.90
39347;DHT22;26262;49.836;6.632;2023-05-07T06:13:10;11.50;99.90
39347;DHT22;26262;49.836;6.632;2023-05-07T06:15:36;11.70;99.90
39347;DHT22;26262;49.836;6.632;2023-05-07T06:18:01;11.70;99.90
39347;DHT22;26262;49.836;6.632;2023-05-07T06:20:27;11.60;99.90
39347;DHT22;26262;49.836;6.632;2023-05-07T06:22:52;11.80;99.90
39347;DHT22;26262;49.836;6.632;2023-05-07T06:25:18;11.80;99.90
39347;DHT22;26262;49.836;6.632;2023-05-07T06:27:44;11.90;99.90
39347;DHT22;26262;49.836;6.632;2023-05-07T06:30:09;12.10;99.90
39347;DHT22;26262;49.836;6.632;2023-05-07T06:32:36;12.10;99.90
39347;DHT22;26262;49.836;6.632;2023-05-07T06:35:02;12.30;99.90
39347;DHT22;26262;49.836;6.632;2023-05-07T06:37:27;12.40;99.90
39347;DHT22;26262;49.836;6.632;2023-05-07T06:39:53;12.40;99.90
39347;DHT22;26262;49.836;6.632;2023-05-07T06:42:19;12.50;99.90
39347;DHT22;26262;49.836;6.632;2023-05-07T06:44:44;12.70;99.90
39347;DHT22;26262;49.836;6.632;2023-05-07T06:47:10;12.80;99.90
39347;DHT22;26262;49.836;6.632;2023-05-07T06:49:36;12.80;99.90
39347;DHT22;26262;49.836;6.632;2023-05-07T06:52:01;12.80;99.90
39347;DHT22;26262;49.836;6.632;2023-05-07T06:54:27;12.70;99.90
39347;DHT22;26262;49.836;6.632;2023-05-07T06:56:52;12.90;99.90
39347;DHT22;26262;49.836;6.632;2023-05-07T06:59:18;13.10;99.90
39347;DHT22;26262;49.836;6.632;2023-05-07T07:01:44;13.20;99.90
39347;DHT22;26262;49.836;6.632;2023-05-07T07:04:10;13.40;99.90
39347;DHT22;26262;49.836;6.632;2023-05-07T07:06:35;13.40;99.90
39347;DHT22;26262;49.836;6.632;2023-05-07T07:09:01;13.60;99.90
39347;DHT22;26262;49.836;6.632;2023-05-07T07:11:26;13.70;99.90
39347;DHT22;26262;49.836;6.632;2023-05-07T07:13:52;13.70;99.90
39347;DHT22;26262;49.836;6.632;2023-05-07T07:16:20;13.90;99.90
39347;DHT22;26262;49.836;6.632;2023-05-07T07:18:46;14.10;99.90
39347;DHT22;26262;49.836;6.632;2023-05-07T07:21:11;14.20;99.90
39347;DHT22;26262;49.836;6.632;2023-05-07T07:23:37;14.10;99.90
39347;DHT22;26262;49.836;6.632;2023-05-07T07:26:02;14.20;99.90
39347;DHT22;26262;49.836;6.632;2023-05-07T07:28:28;14.40;99.90
39347;DHT22;26262;49.836;6.632;2023-05-07T07:30:53;14.50;99.90
39347;DHT22;26262;49.836;6.632;2023-05-07T07:33:19;14.70;99.90
39347;DHT22;26262;49.836;6.632;2023-05-07T07:35:44;14.80;99.90
39347;DHT22;26262;49.836;6.632;2023-05-07T07:38:10;14.90;99.90
39347;DHT22;26262;49.836;6.632;2023-05-07T07:40:36;15.00;99.90
39347;DHT22;26262;49.836;6.632;2023-05-07T07:43:01;15.20;99.90
39347;DHT22;26262;49.836;6.632;2023-05-07T07:45:27;15.20;99.90
39347;DHT22;26262;49.836;6.632;2023-05-07T07:47:52;15.30;99.90
39347;DHT22;26262;49.836;6.632;2023-05-07T07:50:18;15.30;99.90
39347;DHT22;26262;49.836;6.632;2023-05-07T07:52:44;15.50;99.90
39347;DHT22;26262;49.836;6.632;2023-05-07T07:55:10;15.60;99.90
39347;DHT22;26262;49.836;6.632;2023-05-07T07:57:35;15.80;99.90
39347;DHT22;26262;49.836;6.632;2023-05-07T08:00:01;15.90;99.90
39347;DHT22;26262;49.836;6.632;2023-05-07T08:02:27;16.00;99.90
39347;DHT22;26262;49.836;6.632;2023-05-07T08:04:53;16.20;99.90
39347;DHT22;26262;49.836;6.632;2023-05-07T08:07:18;16.30;99.90
39347;DHT22;26262;49.836;6.632;2023-05-07T08:09:46;16.40;99.90
39347;DHT22;26262;49.836;6.632;2023-05-07T08:12:11;16.50;99.90
39347;DHT22;26262;49.836;6.632;2023-05-07T08:14:37;16.80;99.90
39347;DHT22;26262;49.836;6.632;2023-05-07T08:17:03;16.90;99.90
39347;DHT22;26262;49.836;6.632;2023-05-07T08:19:28;17.10;99.90
39347;DHT22;26262;49.836;6.632;2023-05-07T08:21:54;17.10;99.90
39347;DHT22;26262;49.836;6.632;2023-05-07T08:26:48;17.50;99.90
39347;DHT22;26262;49.836;6.632;2023-05-07T08:29:14;17.60;99.90
39347;DHT22;26262;49.836;6.632;2023-05-07T08:31:40;17.70;99.90
39347;DHT22;26262;49.836;6.632;2023-05-07T08:34:06;17.90;99.90
39347;DHT22;26262;49.836;6.632;2023-05-07T08:36:32;18.00;99.90
39347;DHT22;26262;49.836;6.632;2023-05-07T08:38:57;18.00;99.90
39347;DHT22;26262;49.836;6.632;2023-05-07T08:41:23;18.10;99.90
39347;DHT22;26262;49.836;6.632;2023-05-07T08:43:49;18.20;99.90
39347;DHT22;26262;49.836;6.632;2023-05-07T08:46:20;18.30;99.90
39347;DHT22;26262;49.836;6.632;2023-05-07T08:48:50;18.40;99.90
39347;DHT22;26262;49.836;6.632;2023-05-07T08:51:17;18.40;99.90
39347;DHT22;26262;49.836;6.632;2023-05-07T08:53:43;18.60;99.90
39347;DHT22;26262;49.836;6.632;2023-05-07T08:56:09;18.70;99.90
39347;DHT22;26262;49.836;6.632;2023-05-07T08:58:35;19.00;99.90
39347;DHT22;26262;49.836;6.632;2023-05-07T09:01:08;18.90;99.90
39347;DHT22;26262;49.836;6.632;2023-05-07T09:03:34;19.10;99.90
39347;DHT22;26262;49.836;6.632;2023-05-07T09:05:59;19.30;99.90
39347;DHT22;26262;49.836;6.632;2023-05-07T09:08:26;19.50;99.90
39347;DHT22;26262;49.836;6.632;2023-05-07T09:10:52;19.60;99.90
39347;DHT22;26262;49.836;6.632;2023-05-07T09:13:18;19.80;99.90
39347;DHT22;26262;49.836;6.632;2023-05-07T09:15:44;19.90;99.90
39347;DHT22;26262;49.836;6.632;2023-05-07T09:18:10;20.10;99.90
39347;DHT22;26262;49.836;6.632;2023-05-07T09:20:40;20.20;99.90
39347;DHT22;26262;49.836;6.632;2023-05-07T09:23:07;20.40;99.90
39347;DHT22;26262;49.836;6.632;2023-05-07T09:25:33;20.60;99.90
39347;DHT22;26262;49.836;6.632;2023-05-07T09:28:00;20.80;99.90
39347;DHT22;26262;49.836;6.632;2023-05-07T09:30:33;21.10;99.90
39347;DHT22;26262;49.836;6.632;2023-05-07T09:33:00;21.40;99.90
39347;DHT22;26262;49.836;6.632;2023-05-07T09:35:26;21.50;99.90
39347;DHT22;26262;49.836;6.632;2023-05-07T09:37:59;21.70;99.90
39347;DHT22;26262;49.836;6.632;2023-05-07T09:40:29;21.80;99.90
39347;DHT22;26262;49.836;6.632;2023-05-07T09:42:55;21.90;99.90
39347;DHT22;26262;49.836;6.632;2023-05-07T09:45:27;22.20;99.90
39347;DHT22;26262;49.836;6.632;2023-05-07T09:47:56;22.30;99.90
39347;DHT22;26262;49.836;6.632;2023-05-07T09:50:27;22.40;99.90
39347;DHT22;26262;49.836;6.632;2023-05-07T09:52:55;22.50;99.90
39347;DHT22;26262;49.836;6.632;2023-05-07T09:55:21;22.60;99.90
39347;DHT22;26262;49.836;6.632;2023-05-07T09:57:50;22.60;99.90
39347;DHT22;26262;49.836;6.632;2023-05-07T10:00:19;22.60;99.90
39347;DHT22;26262;49.836;6.632;2023-05-07T10:02:50;22.60;99.90
39347;DHT22;26262;49.836;6.632;2023-05-07T10:05:18;22.60;99.90
39347;DHT22;26262;49.836;6.632;2023-05-07T10:07:49;22.50;99.90
39347;DHT22;26262;49.836;6.632;2023-05-07T10:10:15;22.40;99.90
39347;DHT22;26262;49.836;6.632;2023-05-07T10:12:41;22.70;99.90
39347;DHT22;26262;49.836;6.632;2023-05-07T10:15:08;23.00;99.90
39347;DHT22;26262;49.836;6.632;2023-05-07T10:17:38;23.20;99.90
39347;DHT22;26262;49.836;6.632;2023-05-07T10:20:05;23.50;99.90
39347;DHT22;26262;49.836;6.632;2023-05-07T10:22:50;23.40;99.90
39347;DHT22;26262;49.836;6.632;2023-05-07T10:25:20;23.50;99.90
39347;DHT22;26262;49.836;6.632;2023-05-07T10:27:48;23.40;99.90
39347;DHT22;26262;49.836;6.632;2023-05-07T10:32:49;24.20;99.90
39347;DHT22;26262;49.836;6.632;2023-05-07T10:35:20;24.50;99.90
39347;DHT22;26262;49.836;6.632;2023-05-07T10:37:47;24.60;98.90
39347;DHT22;26262;49.836;6.632;2023-05-07T10:40:13;24.50;98.60
39347;DHT22;26262;49.836;6.632;2023-05-07T10:42:49;24.40;98.80
39347;DHT22;26262;49.836;6.632;2023-05-07T10:45:18;24.30;98.20
39347;DHT22;26262;49.836;6.632;2023-05-07T10:48:06;23.90;97.20
39347;DHT22;26262;49.836;6.632;2023-05-07T10:50:32;24.40;98.00
39347;DHT22;26262;49.836;6.632;2023-05-07T10:55:42;24.10;96.20
39347;DHT22;26262;49.836;6.632;2023-05-07T10:58:26;24.20;96.90
39347;DHT22;26262;49.836;6.632;2023-05-07T11:00:57;24.40;98.10
39347;DHT22;26262;49.836;6.632;2023-05-07T11:03:23;25.00;98.80
39347;DHT22;26262;49.836;6.632;2023-05-07T11:06:14;25.30;98.10
39347;DHT22;26262;49.836;6.632;2023-05-07T11:08:53;25.60;96.10
39347;DHT22;26262;49.836;6.632;2023-05-07T11:11:19;25.80;96.10
39347;DHT22;26262;49.836;6.632;2023-05-07T11:13:48;26.10;95.30
39347;DHT22;26262;49.836;6.632;2023-05-07T11:16:19;26.10;94.90
39347;DHT22;26262;49.836;6.632;2023-05-07T11:18:48;26.00;94.70
39347;DHT22;26262;49.836;6.632;2023-05-07T11:21:35;25.30;94.40
39347;DHT22;26262;49.836;6.632;2023-05-07T11:24:03;25.70;94.30
39347;DHT22;26262;49.836;6.632;2023-05-07T11:26:30;25.50;93.80
39347;DHT22;26262;49.836;6.632;2023-05-07T11:28:56;25.50;94.80
39347;DHT22;26262;49.836;6.632;2023-05-07T11:31:24;25.40;95.00
39347;DHT22;26262;49.836;6.632;2023-05-07T11:33:52;25.00;94.50
39347;DHT22;26262;49.836;6.632;2023-05-07T11:36:18;24.80;95.30
39347;DHT22;26262;49.836;6.632;2023-05-07T11:38:44;24.70;95.20
39347;DHT22;26262;49.836;6.632;2023-05-07T11:41:10;24.80;95.60
39347;DHT22;26262;49.836;6.632;2023-05-07T11:43:35;24.80;94.80
39347;DHT22;26262;49.836;6.632;2023-05-07T11:46:06;24.90;96.30
39347;DHT22;26262;49.836;6.632;2023-05-07T11:48:32;24.90;95.10
39347;DHT22;26262;49.836;6.632;2023-05-07T11:53:28;24.20;95.60
39347;DHT22;26262;49.836;6.632;2023-05-07T11:56:00;24.50;95.70
39347;DHT22;26262;49.836;6.632;2023-05-07T11:58:26;24.50;95.80
39347;DHT22;26262;49.836;6.632;2023-05-07T12:00:53;24.70;95.50
39347;DHT22;26262;49.836;6.632;2023-05-07T12:03:19;24.90;95.60
39347;DHT22;26262;49.836;6.632;2023-05-07T12:05:45;25.20;94.50
39347;DHT22;26262;49.836;6.632;2023-05-07T12:08:15;25.40;95.30
39347;DHT22;26262;49.836;6.632;2023-05-07T12:10:41;25.50;93.80
39347;DHT22;26262;49.836;6.632;2023-05-07T12:13:21;25.80;94.60
39347;DHT22;26262;49.836;6.632;2023-05-07T12:15:54;26.10;94.10
39347;DHT22;26262;49.836;6.632;2023-05-07T12:18:20;26.40;93.30
39347;DHT22;26262;49.836;6.632;2023-05-07T12:20:47;26.20;93.90
39347;DHT22;26262;49.836;6.632;2023-05-07T12:23:13;25.70;94.80
39347;DHT22;26262;49.836;6.632;2023-05-07T12:25:40;25.90;93.70
39347;DHT22;26262;49.836;6.632;2023-05-07T12:28:21;25.50;93.90
39347;DHT22;26262;49.836;6.632;2023-05-07T12:30:49;26.30;93.50
39347;DHT22;26262;49.836;6.632;2023-05-07T12:33:23;26.70;92.10
39347;DHT22;26262;49.836;6.632;2023-05-07T12:35:49;26.80;91.30
39347;DHT22;26262;49.836;6.632;2023-05-07T12:38:17;27.10;92.30
39347;DHT22;26262;49.836;6.632;2023-05-07T12:40:45;27.00;91.50
39347;DHT22;26262;49.836;6.632;2023-05-07T12:43:17;27.00;90.40
39347;DHT22;26262;49.836;6.632;2023-05-07T12:45:44;27.30;91.90
39347;DHT22;26262;49.836;6.632;2023-05-07T12:48:10;27.30;91.50
39347;DHT22;26262;49.836;6.632;2023-05-07T12:50:36;27.10;90.90
39347;DHT22;26262;49.836;6.632;2023-05-07T12:53:06;27.00;91.30
39347;DHT22;26262;49.836;6.632;2023-05-07T12:55:43;26.80;90.50
39347;DHT22;26262;49.836;6.632;2023-05-07T12:58:18;26.20;92.10
39347;DHT22;26262;49.836;6.632;2023-05-07T13:00:45;26.00;91.70
39347;DHT22;26262;49.836;6.632;2023-05-07T13:03:24;25.40;91.30
39347;DHT22;26262;49.836;6.632;2023-05-07T13:05:51;25.00;91.20
39347;DHT22;26262;49.836;6.632;2023-05-07T13:08:30;25.10;91.00
39347;DHT22;26262;49.836;6.632;2023-05-07T13:10:57;25.10;90.10
39347;DHT22;26262;49.836;6.632;2023-05-07T13:13:23;24.80;91.10
39347;DHT22;26262;49.836;6.632;2023-05-07T13:15:49;24.80;91.30
39347;DHT22;26262;49.836;6.632;2023-05-07T13:18:14;24.40;91.70
39347;DHT22;26262;49.836;6.632;2023-05-07T13:20:40;24.00;91.80
39347;DHT22;26262;49.836;6.632;2023-05-07T13:23:06;23.60;93.20
39347;DHT22;26262;49.836;6.632;2023-05-07T13:25:31;23.30;93.80
39347;DHT22;26262;49.836;6.632;2023-05-07T13:27:57;23.20;94.90
39347;DHT22;26262;49.836;6.632;2023-05-07T13:30:23;22.90;94.90
39347;DHT22;26262;49.836;6.632;2023-05-07T13:32:48;23.20;96.30
39347;DHT22;26262;49.836;6.632;2023-05-07T13:35:16;23.10;95.10
39347;DHT22;26262;49.836;6.632;2023-05-07T13:37:41;23.10;96.40
39347;DHT22;26262;49.836;6.632;2023-05-07T13:40:07;23.10;95.40
39347;DHT22;26262;49.836;6.632;2023-05-07T13:42:33;22.80;95.10
39347;DHT22;26262;49.836;6.632;2023-05-07T13:44:59;22.90;95.20
39347;DHT22;26262;49.836;6.632;2023-05-07T13:47:24;22.80;95.90
39347;DHT22;26262;49.836;6.632;2023-05-07T13:49:50;22.90;95.90
39347;DHT22;26262;49.836;6.632;2023-05-07T13:52:16;23.00;96.70
39347;DHT22;26262;49.836;6.632;2023-05-07T13:54:42;23.10;96.10
39347;DHT22;26262;49.836;6.632;2023-05-07T13:57:07;23.10;95.40
39347;DHT22;26262;49.836;6.632;2023-05-07T13:59:33;23.20;95.90
39347;DHT22;26262;49.836;6.632;2023-05-07T14:01:59;23.40;96.00
39347;DHT22;26262;49.836;6.632;2023-05-07T14:04:24;23.40;96.50
39347;DHT22;26262;49.836;6.632;2023-05-07T14:06:50;23.30;97.30
39347;DHT22;26262;49.836;6.632;2023-05-07T14:09:16;23.40;97.50
39347;DHT22;26262;49.836;6.632;2023-05-07T14:11:41;23.50;98.20
39347;DHT22;26262;49.836;6.632;2023-05-07T14:14:07;23.20;97.70
39347;DHT22;26262;49.836;6.632;2023-05-07T14:16:33;23.10;99.00
39347;DHT22;26262;49.836;6.632;2023-05-07T14:18:58;23.20;99.10
39347;DHT22;26262;49.836;6.632;2023-05-07T14:21:24;23.30;98.30
39347;DHT22;26262;49.836;6.632;2023-05-07T14:23:49;23.20;99.50
39347;DHT22;26262;49.836;6.632;2023-05-07T14:26:15;23.40;98.80
39347;DHT22;26262;49.836;6.632;2023-05-07T14:28:41;23.60;99.10
39347;DHT22;26262;49.836;6.632;2023-05-07T14:31:11;23.50;98.50
39347;DHT22;26262;49.836;6.632;2023-05-07T14:33:37;23.70;98.40
39347;DHT22;26262;49.836;6.632;2023-05-07T14:36:02;23.70;99.10
39347;DHT22;26262;49.836;6.632;2023-05-07T14:38:29;23.40;97.60
39347;DHT22;26262;49.836;6.632;2023-05-07T14:40:55;23.30;97.80
39347;DHT22;26262;49.836;6.632;2023-05-07T14:43:21;23.10;97.70
39347;DHT22;26262;49.836;6.632;2023-05-07T14:45:47;23.20;98.70
39347;DHT22;26262;49.836;6.632;2023-05-07T14:48:12;23.30;98.20
39347;DHT22;26262;49.836;6.632;2023-05-07T14:50:43;23.20;97.80
39347;DHT22;26262;49.836;6.632;2023-05-07T14:53:08;22.90;97.10
39347;DHT22;26262;49.836;6.632;2023-05-07T14:55:34;23.10;96.70
39347;DHT22;26262;49.836;6.632;2023-05-07T14:58:00;23.20;96.80
39347;DHT22;26262;49.836;6.632;2023-05-07T15:00:26;23.40;96.70
39347;DHT22;26262;49.836;6.632;2023-05-07T15:02:52;23.50;96.70
39347;DHT22;26262;49.836;6.632;2023-05-07T15:05:17;23.30;96.40
39347;DHT22;26262;49.836;6.632;2023-05-07T15:07:44;23.30;97.10
39347;DHT22;26262;49.836;6.632;2023-05-07T15:10:10;23.50;96.80
39347;DHT22;26262;49.836;6.632;2023-05-07T15:12:36;23.60;97.40
39347;DHT22;26262;49.836;6.632;2023-05-07T15:15:01;23.10;96.90
39347;DHT22;26262;49.836;6.632;2023-05-07T15:17:27;22.80;97.40
39347;DHT22;26262;49.836;6.632;2023-05-07T15:19:52;22.60;98.40
39347;DHT22;26262;49.836;6.632;2023-05-07T15:22:18;22.80;98.30
39347;DHT22;26262;49.836;6.632;2023-05-07T15:24:44;23.00;97.70
39347;DHT22;26262;49.836;6.632;2023-05-07T15:27:10;23.10;97.40
39347;DHT22;26262;49.836;6.632;2023-05-07T15:29:35;23.10;96.90
39347;DHT22;26262;49.836;6.632;2023-05-07T15:32:01;22.60;96.10
39347;DHT22;26262;49.836;6.632;2023-05-07T15:34:27;22.80;97.30
39347;DHT22;26262;49.836;6.632;2023-05-07T15:36:52;22.70;98.50
39347;DHT22;26262;49.836;6.632;2023-05-07T15:39:18;22.70;97.50